Time;durP1;ratioP1;P1;durP2;ratioP2;P2;SDS_P1;SDS_P2;PMS_P1;PMS_P2;Temp;Humidity;BMP_temperature;BMP_pressure;BME280_temperature;BME280_humidity;BME280_pressure;Samples;Min_cycle;Max_cycle;Signal;HPM_P1;HPM_P2
2022/03/17 00:00:49;;;;;;;15.80;11.40;;;;;;;5.06;56.22;100899.84;7711494;32;37245;-75
2022/03/17 00:05:09;;;;;;;15.15;10.45;;;;;;;4.76;56.81;100899.41;7699448;32;40156;-75
2022/03/17 00:09:26;;;;;;;17.02;11.15;;;;;;;5.02;56.38;100899.44;7713199;32;39982;-75
2022/03/17 00:13:42;;;;;;;15.38;10.40;;;;;;;5.03;57.31;100911.06;7699412;32;38029;-75
2022/03/17 00:17:58;;;;;;;18.45;10.95;;;;;;;4.91;57.79;100901.94;7713165;32;38307;-75
2022/03/17 00:22:16;;;;;;;16.58;11.20;;;;;;;4.85;57.51;100898.19;7713189;32;39280;-75
2022/03/17 00:26:32;;;;;;;17.17;11.23;;;;;;;5.01;57.34;100889.66;7713121;32;41068;-75
2022/03/17 00:30:48;;;;;;;17.62;11.48;;;;;;;4.80;60.38;100895.28;7712720;32;37994;-75
2022/03/17 00:39:43;;;;;;;20.50;12.90;;;;;;;4.93;59.32;100889.84;7712462;32;39148;-75
2022/03/17 00:43:59;;;;;;;19.33;12.48;;;;;;;4.94;59.46;100888.00;7712756;32;40833;-74
2022/03/17 00:48:15;;;;;;;19.15;12.57;;;;;;;4.76;59.71;100884.06;7712695;32;38130;-75
2022/03/17 00:52:31;;;;;;;17.77;11.65;;;;;;;4.84;59.49;100893.81;7712573;32;37153;-75
2022/03/17 00:56:47;;;;;;;18.60;11.80;;;;;;;4.55;60.45;100898.53;7712649;32;40065;-75
2022/03/17 01:01:03;;;;;;;18.90;12.80;;;;;;;4.54;59.53;100906.88;7712372;32;40846;-75
2022/03/17 01:05:23;;;;;;;21.05;11.82;;;;;;;4.63;58.02;100922.66;7712501;32;37960;-75
2022/03/17 01:09:38;;;;;;;21.37;13.30;;;;;;;4.51;57.50;100914.34;7712632;32;36974;-75
2022/03/17 01:13:55;;;;;;;18.58;12.50;;;;;;;4.36;57.59;100910.97;7711905;32;39816;-75
2022/03/17 01:18:11;;;;;;;17.52;11.88;;;;;;;4.40;57.73;100906.00;7712070;32;39969;-75
2022/03/17 01:22:27;;;;;;;21.00;13.50;;;;;;;4.45;58.53;100914.31;7712260;32;37985;-74
2022/03/17 01:26:43;;;;;;;22.40;12.85;;;;;;;4.21;60.36;100924.66;7712394;32;37463;-75
2022/03/17 01:31:03;;;;;;;19.50;12.90;;;;;;;3.82;61.04;100936.09;7712239;32;40122;-75
2022/03/17 01:35:19;;;;;;;19.98;13.10;;;;;;;4.02;59.93;100939.72;7712224;32;40054;-75
2022/03/17 01:39:36;;;;;;;22.33;13.30;;;;;;;4.05;59.34;100936.62;7711314;32;38734;-75
2022/03/17 01:43:52;;;;;;;22.27;12.85;;;;;;;3.88;59.06;100946.91;7712295;32;37280;-75
2022/03/17 01:48:08;;;;;;;27.52;15.00;;;;;;;4.06;57.93;100943.66;7712067;32;40155;-74
2022/03/17 01:52:24;;;;;;;21.50;14.38;;;;;;;4.02;58.65;100939.72;7711832;32;39903;-75
2022/03/17 01:56:41;;;;;;;23.12;14.73;;;;;;;3.86;59.49;100948.94;7711859;32;38667;-74
2022/03/17 02:00:58;;;;;;;23.98;15.15;;;;;;;3.89;58.78;100943.16;7711875;32;37933;-75
2022/03/17 02:05:14;;;;;;;29.50;17.40;;;;;;;3.89;58.62;100953.13;7711971;32;40144;-75
2022/03/17 02:09:31;;;;;;;28.67;17.65;;;;;;;4.04;58.44;100961.09;7711818;32;40700;-75
2022/03/17 02:13:47;;;;;;;26.92;16.30;;;;;;;3.86;59.06;100948.94;7711784;32;38787;-75
2022/03/17 02:18:08;;;;;;;28.77;17.55;;;;;;;3.79;59.71;100952.66;7711865;32;37241;-75
2022/03/17 02:22:25;;;;;;;26.45;15.27;;;;;;;3.73;60.03;100954.28;7711508;32;40099;-74
2022/03/17 02:26:41;;;;;;;25.20;16.12;;;;;;;3.89;59.41;100959.34;7711660;32;39970;-74
2022/03/17 02:30:58;;;;;;;28.25;15.82;;;;;;;3.80;62.02;100959.72;7711432;32;37927;-74
2022/03/17 02:35:18;;;;;;;26.02;16.37;;;;;;;3.94;61.01;100966.88;7711620;32;36930;-74
2022/03/17 02:39:34;;;;;;;21.73;15.15;;;;;;;3.94;60.29;100961.47;7711342;32;39167;-75
2022/03/17 02:43:54;;;;;;;22.23;15.10;;;;;;;4.11;59.57;100984.38;7711421;32;39707;-75
2022/03/17 02:48:10;;;;;;;26.52;16.92;;;;;;;4.20;59.23;100986.94;7711333;32;37927;-75
2022/03/17 02:52:27;;;;;;;28.10;17.33;;;;;;;4.03;60.17;100979.16;7710851;32;37364;-75
2022/03/17 02:56:43;;;;;;;27.08;17.42;;;;;;;4.16;59.64;100980.25;7711418;32;39426;-75
2022/03/17 03:01:00;;;;;;;29.70;17.75;;;;;;;4.17;60.22;100990.00;7711228;32;39925;-74
2022/03/17 03:05:16;;;;;;;23.90;14.98;;;;;;;3.68;61.98;101003.44;7711120;32;38714;-75
2022/03/17 03:09:33;;;;;;;23.15;15.40;;;;;;;3.50;61.48;101008.47;7711154;32;38155;-75
2022/03/17 03:13:49;;;;;;;26.05;15.10;;;;;;;3.67;59.87;101020.63;7711136;32;39288;-74
2022/03/17 03:18:05;;;;;;;25.23;15.50;;;;;;;3.42;60.32;101024.81;7710936;32;39929;-75
2022/03/17 03:22:22;;;;;;;26.75;16.95;;;;;;;3.57;59.29;101028.25;7710956;32;37994;-75
2022/03/17 03:26:40;;;;;;;27.30;17.12;;;;;;;3.44;59.43;101020.03;7710515;32;37249;-75
2022/03/17 03:30:56;;;;;;;26.40;16.25;;;;;;;3.51;59.57;101012.84;7710470;32;38381;-75
2022/03/17 03:40:08;;;;;;;35.20;16.73;;;;;;;3.17;61.21;101031.44;7627213;32;37950;-74
2022/03/17 03:44:24;;;;;;;26.30;16.35;;;;;;;3.42;60.40;101027.50;7673430;32;36799;-74
2022/03/17 03:48:41;;;;;;;24.87;15.80;;;;;;;3.41;59.78;101015.88;7710363;32;39138;-74
2022/03/17 03:52:58;;;;;;;25.35;15.40;;;;;;;3.19;59.54;101017.72;7709875;32;39858;-74
2022/03/17 03:57:14;;;;;;;26.27;16.35;;;;;;;3.35;59.94;101017.47;7710104;32;38703;-74
2022/03/17 04:01:32;;;;;;;190.70;19.45;;;;;;;3.24;60.74;101026.06;7710015;32;37190;-74
2022/03/17 04:05:51;;;;;;;28.45;15.20;;;;;;;2.53;61.16;101018.69;7710168;32;39358;-75
2022/03/17 04:10:08;;;;;;;25.10;14.27;;;;;;;2.80;60.90;100998.28;7710014;32;39890;-75
2022/03/17 04:14:24;;;;;;;25.10;15.25;;;;;;;2.96;60.25;100997.22;7709439;32;38819;-74
2022/03/17 04:18:40;;;;;;;25.60;14.48;;;;;;;2.90;60.20;100995.31;7709641;32;38144;-74
2022/03/17 04:22:56;;;;;;;36.35;15.48;;;;;;;3.17;59.43;100990.16;7709584;32;40071;-74
2022/03/17 04:27:12;;;;;;;25.88;15.45;;;;;;;2.84;59.84;100990.66;7709449;32;40765;-74
2022/03/17 04:31:29;;;;;;;25.75;15.30;;;;;;;2.85;60.07;100988.81;7709141;32;37941;-74
2022/03/17 04:35:45;;;;;;;25.65;16.35;;;;;;;2.98;61.55;101005.09;7709318;32;38217;-74
2022/03/17 04:40:05;;;;;;;23.92;15.95;;;;;;;3.16;62.33;101018.16;7709151;32;39374;-74
2022/03/17 04:44:21;;;;;;;24.80;15.63;;;;;;;3.05;62.16;101037.50;7709093;32;40259;-74
2022/03/17 04:48:37;;;;;;;22.23;14.60;;;;;;;2.96;60.74;101028.72;7711633;32;38780;-74
2022/03/17 04:57:28;;;;;;;23.73;15.55;;;;;;;2.98;58.65;101038.28;7712723;32;39312;-74
2022/03/17 05:01:44;;;;;;;26.08;16.08;;;;;;;2.89;60.98;101049.34;7712395;32;39902;-74
2022/03/17 05:06:01;;;;;;;29.73;17.42;;;;;;;3.12;61.02;101055.41;7712522;32;37684;-74
2022/03/17 05:10:18;;;;;;;24.77;16.10;;;;;;;3.22;60.17;101057.78;7712213;32;37285;-74
2022/03/17 05:14:36;;;;;;;26.00;17.25;;;;;;;3.07;59.33;101060.56;7712463;32;40108;-74
2022/03/17 05:18:53;;;;;;;29.65;17.25;;;;;;;3.36;59.06;101061.44;7712344;32;39662;-74
2022/03/17 05:23:11;;;;;;;23.15;15.45;;;;;;;3.14;60.82;101068.69;7712309;32;37701;-74
2022/03/17 05:27:27;;;;;;;23.33;16.02;;;;;;;2.94;60.66;101072.00;7712426;32;36340;-74
2022/03/17 05:31:43;;;;;;;26.40;16.95;;;;;;;2.70;60.62;101093.88;7712081;32;40138;-75
2022/03/17 05:35:59;;;;;;;23.62;15.02;;;;;;;2.95;59.96;101089.84;7712217;32;40880;-74
2022/03/17 05:40:17;;;;;;;120.95;18.58;;;;;;;2.60;60.78;101110.31;7711908;32;38692;-74
2022/03/17 05:44:34;;;;;;;22.40;14.80;;;;;;;2.54;61.71;101117.31;7712164;32;37251;-74
2022/03/17 05:48:51;;;;;;;26.67;15.50;;;;;;;2.63;61.22;101121.56;7712106;32;40171;-74
2022/03/17 05:53:08;;;;;;;23.15;15.18;;;;;;;2.89;59.89;101131.00;7698225;32;40102;-73
2022/03/17 05:57:24;;;;;;;26.55;16.62;;;;;;;2.88;59.92;101123.09;7711482;32;37842;-74
2022/03/17 06:01:40;;;;;;;23.42;14.98;;;;;;;3.26;59.32;101125.63;7711911;32;38298;-73
2022/03/17 06:06:16;;;;;;;23.15;15.02;;;;;;;3.28;60.22;101135.19;7711547;32;39682;-74
2022/03/17 06:10:33;;;;;;;24.33;15.32;;;;;;;3.18;60.61;101158.91;7711557;32;40724;-74
2022/03/17 06:14:49;;;;;;;23.60;15.07;;;;;;;3.10;59.41;101156.31;7711713;32;38029;-74
2022/03/17 06:19:05;;;;;;;24.77;15.82;;;;;;;3.06;59.98;101157.75;7711654;32;38103;-75
2022/03/17 06:23:21;;;;;;;27.42;16.52;;;;;;;3.33;59.62;101148.09;7697920;32;40115;-74
2022/03/17 06:27:38;;;;;;;26.95;16.08;;;;;;;3.61;59.26;101134.69;7711565;32;39670;-74
2022/03/17 06:31:54;;;;;;;36.75;19.62;;;;;;;4.04;59.30;101155.41;7711393;32;38693;-74
2022/03/17 06:36:10;;;;;;;28.23;18.20;;;;;;;3.60;58.66;101168.06;7711569;32;37273;-74
2022/03/17 06:40:27;;;;;;;30.55;18.85;;;;;;;3.44;59.54;101179.13;7711399;32;39578;-74
2022/03/17 06:44:43;;;;;;;27.55;16.92;;;;;;;3.25;60.78;101183.25;7711466;32;39699;-75
2022/03/17 06:48:59;;;;;;;30.48;17.90;;;;;;;3.75;59.78;101184.22;7711301;32;37900;-75
2022/03/17 06:53:15;;;;;;;28.50;17.58;;;;;;;3.72;59.92;101193.50;7711244;32;37030;-74
2022/03/17 06:57:31;;;;;;;31.50;19.30;;;;;;;4.20;58.96;101189.37;7711133;32;39667;-74
2022/03/17 07:01:47;;;;;;;32.72;17.60;;;;;;;4.24;59.70;101187.94;7710815;32;40835;-74
2022/03/17 07:06:04;;;;;;;23.80;16.27;;;;;;;4.55;59.31;101190.25;7711103;32;38903;-72
2022/03/17 07:10:20;;;;;;;23.42;16.30;;;;;;;4.77;58.20;101191.00;7709179;32;38173;-74
2022/03/17 07:14:37;;;;;;;26.48;16.60;;;;;;;5.06;57.28;101191.78;7709167;32;39100;-75
2022/03/17 07:18:53;;;;;;;25.00;16.33;;;;;;;5.19;57.24;101191.00;7709894;32;40584;-75
2022/03/17 07:23:09;;;;;;;27.42;17.05;;;;;;;5.56;57.37;101195.06;7710687;32;38523;-74
2022/03/17 07:27:25;;;;;;;33.60;21.70;;;;;;;5.27;57.10;101207.03;7710199;32;37017;-74
2022/03/17 07:31:41;;;;;;;33.47;21.42;;;;;;;5.26;57.82;101203.53;7707134;32;39926;-74
2022/03/17 07:35:57;;;;;;;30.77;19.45;;;;;;;5.50;58.67;101187.75;7707333;32;41509;-74
2022/03/17 07:40:13;;;;;;;37.05;21.50;;;;;;;6.14;60.75;101193.72;7709055;32;38629;-73
2022/03/17 07:44:29;;;;;;;33.10;20.42;;;;;;;6.83;57.89;101191.56;7709397;32;37985;-74
2022/03/17 07:48:45;;;;;;;118.47;74.22;;;;;;;6.39;54.76;101202.87;7710239;32;39394;-74
2022/03/17 07:53:02;;;;;;;45.55;30.25;;;;;;;6.17;54.99;101205.00;7684097;32;40933;-74
2022/03/17 07:57:19;;;;;;;34.25;23.17;;;;;;;6.28;56.52;101208.94;7683519;32;38119;-74
2022/03/17 08:01:38;;;;;;;33.47;19.05;;;;;;;6.71;57.77;101205.78;7686733;32;38377;-75
2022/03/17 08:05:55;;;;;;;31.62;18.77;;;;;;;7.47;53.57;101204.25;7706738;32;39176;-75
2022/03/17 08:10:11;;;;;;;32.08;19.33;;;;;;;8.25;49.37;101197.66;7709885;32;39664;-73
2022/03/17 08:14:33;;;;;;;29.35;18.10;;;;;;;8.81;47.84;101203.22;7709854;32;37802;-74
2022/03/17 08:18:49;;;;;;;28.65;17.45;;;;;;;9.37;44.88;101193.16;7709553;32;37015;-75
2022/03/17 08:23:07;;;;;;;29.15;17.77;;;;;;;9.88;43.55;101194.56;7712403;32;40141;-74
2022/03/17 08:27:23;;;;;;;32.03;19.45;;;;;;;10.19;42.69;101191.75;7699164;32;40832;-76
2022/03/17 08:31:40;;;;;;;28.08;18.35;;;;;;;10.42;41.37;101191.81;7712417;32;38128;-76
2022/03/17 08:35:56;;;;;;;30.73;17.70;;;;;;;10.92;38.24;101206.00;7712737;32;38241;-75
2022/03/17 08:40:13;;;;;;;31.17;17.50;;;;;;;10.86;38.42;101215.97;7712393;32;39356;-75
2022/03/17 08:44:29;;;;;;;32.10;18.08;;;;;;;10.70;39.82;101204.72;7712031;32;40171;-75
2022/03/17 08:53:21;;;;;;;30.17;17.20;;;;;;;11.63;37.95;101195.72;7704107;32;37305;-75
2022/03/17 08:57:37;;;;;;;29.20;18.25;;;;;;;11.84;36.86;101202.38;7707003;32;40092;-75
2022/03/17 09:01:53;;;;;;;27.52;17.33;;;;;;;12.32;36.48;101195.56;7698374;32;39981;-75
2022/03/17 09:06:11;;;;;;;27.02;16.65;;;;;;;12.61;34.82;101189.16;7697469;32;38314;-75
2022/03/17 09:10:27;;;;;;;31.77;18.48;;;;;;;13.01;36.65;101194.38;7711404;32;37811;-75
2022/03/17 09:14:44;;;;;;;28.70;17.15;;;;;;;13.26;33.34;101195.78;7712207;32;39398;-74
2022/03/17 09:19:00;;;;;;;31.50;18.48;;;;;;;13.53;33.52;101196.66;7711907;32;39914;-75
2022/03/17 09:23:16;;;;;;;28.75;17.52;;;;;;;13.07;32.98;101195.25;7710464;32;38830;-75
2022/03/17 09:27:32;;;;;;;29.17;18.40;;;;;;;13.44;32.82;101200.13;7709817;32;36824;-75
2022/03/17 09:31:49;;;;;;;30.58;18.73;;;;;;;13.58;33.22;101200.56;7710982;32;39845;-75
2022/03/17 09:36:05;;;;;;;33.63;18.25;;;;;;;13.80;32.25;101206.00;7711493;32;39753;-75
2022/03/17 09:40:21;;;;;;;29.40;17.62;;;;;;;13.96;32.21;101193.25;7698155;32;38188;-75
2022/03/17 09:44:38;;;;;;;33.92;18.20;;;;;;;14.64;31.62;101191.62;7712073;32;37848;-75
2022/03/17 09:48:55;;;;;;;28.02;17.45;;;;;;;14.99;31.51;101190.16;7712084;32;39445;-75
2022/03/17 09:53:11;;;;;;;27.70;18.08;;;;;;;14.58;31.01;101184.44;7698271;32;39966;-75
2022/03/17 09:57:27;;;;;;;27.17;18.30;;;;;;;14.44;31.35;101184.03;7711545;32;38749;-75
2022/03/17 10:01:44;;;;;;;32.40;19.20;;;;;;;14.00;32.92;101183.41;7711613;32;38214;-76
2022/03/17 10:06:05;;;;;;;29.48;17.67;;;;;;;15.28;29.75;101181.50;7698708;32;37570;-75
2022/03/17 10:10:34;;;;;;;27.30;17.50;;;;;;;15.71;30.09;101179.41;7711798;32;40121;-76
2022/03/17 10:14:53;;;;;;;31.60;18.35;;;;;;;15.97;29.30;101182.22;7699549;32;38002;-76
2022/03/17 10:19:10;;;;;;;28.10;18.00;;;;;;;15.96;29.25;101186.06;7697931;32;37257;-74
2022/03/17 10:23:26;;;;;;;29.20;17.98;;;;;;;16.07;29.35;101184.12;7711724;32;39167;-75
2022/03/17 10:27:49;;;;;;;28.15;17.60;;;;;;;16.30;27.68;101174.53;7711589;32;39737;-75
2022/03/17 10:32:14;;;;;;;29.95;16.95;;;;;;;16.01;28.56;101175.06;7711512;32;38918;-74
2022/03/17 10:36:31;;;;;;;30.70;18.30;;;;;;;16.22;26.94;101166.81;7711585;32;37240;-77
2022/03/17 10:41:11;;;;;;;29.42;17.40;;;;;;;15.94;27.01;101177.28;7711551;32;39047;-75
2022/03/17 10:45:29;;;;;;;28.27;16.83;;;;;;;15.42;27.83;101170.00;7710152;32;40885;-75
2022/03/17 10:50:03;;;;;;;25.02;17.15;;;;;;;15.63;28.45;101168.94;7711100;32;38044;-75
2022/03/17 10:54:20;;;;;;;35.28;16.92;;;;;;;15.03;28.84;101174.78;7711241;32;37290;-76
2022/03/17 10:58:46;;;;;;;31.27;17.70;;;;;;;15.40;28.53;101171.09;7711091;32;39374;-75
2022/03/17 11:03:23;;;;;;;26.48;15.85;;;;;;;15.30;28.61;101182.06;7710869;32;40125;-75
2022/03/17 11:07:39;;;;;;;27.05;16.58;;;;;;;15.73;27.14;101182.72;7711153;32;38788;-75
2022/03/17 11:11:56;;;;;;;26.83;16.65;;;;;;;16.03;28.01;101185.81;7697432;32;37223;-75
2022/03/17 11:16:13;;;;;;;27.13;16.62;;;;;;;16.22;25.91;101178.66;7711098;32;39422;-75
2022/03/17 11:20:30;;;;;;;26.10;16.30;;;;;;;16.44;26.12;101185.78;7697522;32;40979;-76
2022/03/17 11:24:46;;;;;;;27.85;16.83;;;;;;;16.12;25.96;101182.22;7710808;32;37950;-76
2022/03/17 11:29:06;;;;;;;27.15;16.33;;;;;;;16.20;26.01;101193.78;7710964;32;37195;-76
2022/03/17 11:33:26;;;;;;;27.35;16.95;;;;;;;16.37;26.00;101183.31;7710848;32;39285;-75
2022/03/17 11:37:42;;;;;;;29.75;17.70;;;;;;;16.40;26.27;101188.28;7710857;32;40754;-76
2022/03/17 11:42:21;;;;;;;31.50;17.85;;;;;;;16.50;26.21;101184.66;7710578;32;38150;-75
2022/03/17 11:46:43;;;;;;;31.37;18.10;;;;;;;16.34;26.91;101183.88;7699165;32;37233;-75
2022/03/17 11:51:05;;;;;;;32.92;19.98;;;;;;;15.84;26.86;101193.75;7710436;32;39198;-75
2022/03/17 11:55:47;;;;;;;33.13;19.80;;;;;;;16.04;26.25;101188.28;7709923;32;40123;-74
2022/03/17 12:00:07;;;;;;;34.90;19.83;;;;;;;16.31;26.17;101181.66;7710166;32;37915;-75
2022/03/17 12:04:30;;;;;;;28.58;18.98;;;;;;;16.45;26.28;101182.75;7697577;32;37974;-76
2022/03/17 12:09:01;;;;;;;33.70;19.75;;;;;;;15.61;26.54;101190.41;7709993;32;40128;-75
2022/03/17 12:13:24;;;;;;;32.80;20.20;;;;;;;16.52;25.97;101182.47;7710043;32;39986;-75
2022/03/17 12:17:40;;;;;;;42.87;20.30;;;;;;;16.67;24.98;101181.59;7709906;32;38010;-75
2022/03/17 12:22:02;;;;;;;32.25;19.58;;;;;;;16.32;25.31;101180.56;7709853;32;37110;-75
2022/03/17 12:26:21;;;;;;;33.00;20.00;;;;;;;15.89;24.93;101180.03;7709738;32;39063;-75
2022/03/17 12:30:38;;;;;;;31.35;20.27;;;;;;;15.75;26.06;101174.22;7709428;32;40820;-76
2022/03/17 12:34:55;;;;;;;34.92;19.92;;;;;;;15.57;26.08;101179.13;7709282;32;38694;-75
2022/03/17 12:39:11;;;;;;;35.40;20.30;;;;;;;14.90;27.00;101172.56;7695639;32;37228;-75
2022/03/17 12:43:33;;;;;;;30.83;19.33;;;;;;;15.66;25.90;101168.41;7695516;32;39428;-75
2022/03/17 12:47:56;;;;;;;31.48;18.70;;;;;;;16.49;25.16;101164.59;7709191;32;39832;-75
2022/03/17 12:52:21;;;;;;;28.70;18.95;;;;;;;16.28;25.21;101165.69;7695882;32;38505;-75
2022/03/17 12:56:51;;;;;;;34.97;20.83;;;;;;;16.32;25.29;101161.31;7708894;32;38191;-75
2022/03/17 13:01:07;;;;;;;33.70;21.02;;;;;;;16.22;25.07;101169.56;7695768;32;39377;-76
2022/03/17 13:10:00;;;;;;;33.88;20.12;;;;;;;15.97;25.60;101168.47;7700357;32;37828;-76
2022/03/17 13:14:24;;;;;;;30.77;19.00;;;;;;;16.45;24.93;101165.41;7712538;32;37271;-75
2022/03/17 13:18:51;;;;;;;32.55;19.17;;;;;;;16.45;24.79;101166.25;7712094;32;39258;-75
2022/03/17 13:23:15;;;;;;;33.50;19.92;;;;;;;16.73;25.13;101165.91;7712504;32;40228;-75
2022/03/17 13:27:31;;;;;;;33.35;18.45;;;;;;;16.93;24.23;101168.63;7712342;32;37704;-75
2022/03/17 13:31:47;;;;;;;33.60;19.48;;;;;;;16.76;24.62;101162.59;7712277;32;37401;-76
2022/03/17 13:36:03;;;;;;;34.72;20.45;;;;;;;15.84;24.53;101180.81;7712195;32;39971;-76
2022/03/17 13:40:19;;;;;;;31.67;20.00;;;;;;;16.07;24.09;101173.94;7711945;32;40725;-76
2022/03/17 13:44:54;;;;;;;29.52;19.65;;;;;;;15.88;23.91;101167.34;7712087;32;38781;-75
2022/03/17 13:49:33;;;;;;;33.05;18.70;;;;;;;15.03;25.04;101173.97;7711189;32;37714;-75
2022/03/17 13:53:49;;;;;;;28.67;19.08;;;;;;;15.23;25.95;101172.41;7712124;32;40053;-76
2022/03/17 13:58:37;;;;;;;32.72;18.87;;;;;;;15.30;25.15;101179.31;7711980;32;39925;-76
2022/03/17 14:03:16;;;;;;;33.08;19.30;;;;;;;15.08;25.83;101170.44;7709162;32;38807;-76
2022/03/17 14:07:32;;;;;;;30.77;17.75;;;;;;;15.15;25.73;101179.25;7711831;32;37083;-76
2022/03/17 14:11:48;;;;;;;34.25;17.70;;;;;;;15.16;25.70;101178.12;7711867;32;39102;-77
2022/03/17 14:16:09;;;;;;;30.55;18.15;;;;;;;14.95;26.01;101180.81;7698068;32;39881;-77
2022/03/17 14:20:26;;;;;;;28.45;17.55;;;;;;;14.47;26.47;101171.72;7711233;32;38000;-76
2022/03/17 14:24:42;;;;;;;33.05;18.60;;;;;;;14.57;26.10;101169.06;7711479;32;38164;-76
2022/03/17 14:28:59;;;;;;;29.52;17.62;;;;;;;14.76;25.90;101174.12;7711587;32;40779;-75
2022/03/17 14:33:15;;;;;;;33.17;18.25;;;;;;;14.37;25.84;101175.22;7711489;32;40765;-76
2022/03/17 14:37:31;;;;;;;31.27;17.87;;;;;;;14.17;26.60;101175.06;7711348;32;37955;-76
2022/03/17 14:41:48;;;;;;;30.42;17.75;;;;;;;14.76;25.85;101174.12;7711340;32;37154;-76
2022/03/17 14:46:08;;;;;;;36.42;19.08;;;;;;;14.95;25.47;101171.75;7711330;32;39480;-75
2022/03/17 14:50:24;;;;;;;28.08;17.85;;;;;;;14.04;27.07;101173.59;7711077;32;40817;-75
2022/03/17 14:54:40;;;;;;;30.75;18.08;;;;;;;13.97;26.72;101178.44;7711239;32;37429;-76
2022/03/17 14:58:56;;;;;;;29.40;17.90;;;;;;;13.81;27.12;101186.53;7711028;32;37937;-75
2022/03/17 15:03:12;;;;;;;32.95;18.23;;;;;;;14.29;26.37;101181.19;7710857;32;40083;-75
2022/03/17 15:07:31;;;;;;;34.28;18.17;;;;;;;14.10;26.52;101180.75;7710929;32;39912;-75
2022/03/17 15:11:47;;;;;;;30.85;18.58;;;;;;;13.43;27.82;101191.06;7697476;32;38779;-75
2022/03/17 15:16:04;;;;;;;33.50;18.62;;;;;;;13.13;28.21;101192.34;7697213;32;35802;-75
2022/03/17 15:20:20;;;;;;;30.67;18.83;;;;;;;13.18;28.43;101198.94;7710900;32;39551;-74
2022/03/17 15:24:36;;;;;;;29.77;19.05;;;;;;;12.75;29.26;101198.69;7710766;32;39752;-75
2022/03/17 15:33:27;;;;;;;30.80;17.95;;;;;;;12.83;28.37;101197.41;7707856;32;37364;-76
2022/03/17 15:37:43;;;;;;;36.33;19.67;;;;;;;12.85;28.13;101204.28;7709629;32;39511;-76
2022/03/17 15:42:01;;;;;;;33.22;19.62;;;;;;;12.67;29.47;101210.03;7710091;32;40144;-76
2022/03/17 15:46:17;;;;;;;30.77;19.67;;;;;;;13.34;28.08;101215.34;7710222;32;37920;-75
2022/03/17 15:50:33;;;;;;;31.62;19.20;;;;;;;13.24;28.27;101219.84;7710380;32;37465;-76
2022/03/17 15:54:49;;;;;;;30.58;18.80;;;;;;;13.37;28.48;101224.16;7710032;32;39279;-76
2022/03/17 15:59:09;;;;;;;34.28;20.35;;;;;;;13.07;29.32;101230.84;7710237;32;39916;-76
2022/03/17 16:03:25;;;;;;;31.48;19.77;;;;;;;13.30;28.71;101233.34;7696832;32;38007;-76
2022/03/17 16:07:41;;;;;;;30.73;18.80;;;;;;;13.52;28.38;101244.34;7710133;32;37176;-76
2022/03/17 16:16:33;;;;;;;32.53;19.83;;;;;;;13.71;28.19;101254.94;7698445;32;39981;-76
2022/03/17 16:20:49;;;;;;;38.92;20.37;;;;;;;13.15;29.21;101253.13;7695967;32;38034;-75
2022/03/17 16:25:05;;;;;;;30.10;18.85;;;;;;;12.21;31.42;101267.56;7696048;32;37216;-76
2022/03/17 16:29:21;;;;;;;32.50;19.67;;;;;;;12.53;30.71;101276.03;7709480;32;39994;-75
2022/03/17 16:33:38;;;;;;;30.25;19.50;;;;;;;12.69;30.58;101274.37;7709031;32;39974;-76
2022/03/17 16:37:54;;;;;;;29.02;17.92;;;;;;;12.51;31.20;101277.37;7709150;32;38735;-75
2022/03/17 16:42:10;;;;;;;31.45;18.12;;;;;;;12.28;32.21;101290.13;7708560;32;37019;-80
2022/03/17 16:46:26;;;;;;;32.22;18.70;;;;;;;12.68;32.55;101283.66;7687422;32;39245;-75
2022/03/17 16:50:43;;;;;;;34.53;18.98;;;;;;;12.67;31.54;101286.66;7694783;32;39729;-76
2022/03/17 16:54:59;;;;;;;32.80;18.15;;;;;;;12.13;32.69;101303.53;7711924;32;38709;-75
2022/03/17 16:59:18;;;;;;;30.80;19.10;;;;;;;12.23;32.50;101313.78;7712372;32;37872;-75
2022/03/17 17:03:37;;;;;;;27.10;17.37;;;;;;;12.09;32.64;101313.25;7712393;32;39315;-75
2022/03/17 17:07:53;;;;;;;34.05;19.52;;;;;;;12.16;32.59;101313.97;7711760;32;40801;-76
2022/03/17 17:12:09;;;;;;;31.62;19.25;;;;;;;11.39;34.23;101320.59;7712018;32;38732;-76
2022/03/17 17:16:25;;;;;;;30.33;18.75;;;;;;;11.90;33.45;101324.38;7711880;32;38273;-75
2022/03/17 17:20:42;;;;;;;27.62;18.42;;;;;;;11.93;33.56;101325.81;7712125;32;39426;-75
2022/03/17 17:34:08;;;;;;;28.52;17.60;;;;;;;11.84;34.71;101328.06;7711901;32;37889;-76
2022/03/17 17:38:24;;;;;;;36.08;19.05;;;;;;;11.30;36.67;101338.37;7711918;32;39975;-75
2022/03/17 17:42:41;;;;;;;39.08;21.55;;;;;;;11.49;35.92;101339.06;7711841;32;40720;-75
2022/03/17 17:46:57;;;;;;;33.80;20.75;;;;;;;11.67;35.69;101354.50;7711426;32;38744;-75
2022/03/17 17:51:14;;;;;;;31.52;19.45;;;;;;;11.37;36.49;101350.03;7711513;32;37360;-75
2022/03/17 17:55:32;;;;;;;31.98;19.85;;;;;;;11.21;36.75;101352.41;7697507;32;39134;-75
2022/03/17 17:59:48;;;;;;;32.70;20.17;;;;;;;11.23;36.73;101358.47;7711606;32;38871;-75
2022/03/17 18:04:04;;;;;;;31.75;20.23;;;;;;;11.19;36.91;101365.47;7711304;32;37919;-75
2022/03/17 18:08:20;;;;;;;35.20;20.67;;;;;;;11.07;37.33;101373.66;7711483;32;37972;-75
2022/03/17 18:12:53;;;;;;;35.55;21.70;;;;;;;11.08;37.61;101385.41;7711677;32;39381;-76
2022/03/17 18:17:09;;;;;;;40.77;21.77;;;;;;;10.97;38.04;101388.94;7699459;32;39922;-76
2022/03/17 18:21:25;;;;;;;32.38;20.60;;;;;;;10.99;38.20;101400.47;7711190;32;38805;-76
2022/03/17 18:25:43;;;;;;;33.67;20.08;;;;;;;10.87;38.53;101398.53;7711436;32;38246;-75
2022/03/17 18:29:59;;;;;;;34.13;19.52;;;;;;;10.97;38.45;101405.31;7711150;32;39391;-75
2022/03/17 18:34:15;;;;;;;37.50;20.42;;;;;;;10.73;39.19;101410.75;7711005;32;40919;-76
2022/03/17 18:38:33;;;;;;;33.05;19.12;;;;;;;10.70;39.17;101408.47;7710875;32;38058;-75
2022/03/17 18:42:49;;;;;;;33.88;19.95;;;;;;;10.70;39.17;101422.09;7711020;32;38184;-75
2022/03/17 18:47:05;;;;;;;33.97;19.45;;;;;;;10.62;38.71;101430.63;7711299;32;39251;-76
2022/03/17 18:51:21;;;;;;;33.97;17.92;;;;;;;10.42;39.04;101430.91;7710255;32;41322;-76
2022/03/17 18:55:37;;;;;;;29.87;18.10;;;;;;;10.24;39.76;101429.00;7696214;32;38194;-76
2022/03/17 18:59:53;;;;;;;31.65;18.00;;;;;;;10.21;40.00;101434.91;7711304;32;37298;-76
2022/03/17 19:04:10;;;;;;;30.45;18.17;;;;;;;10.09;40.21;101438.41;7711041;32;39375;-76
2022/03/17 19:08:26;;;;;;;30.00;18.40;;;;;;;10.15;40.15;101445.66;7710874;32;39811;-76
2022/03/17 19:12:42;;;;;;;33.65;19.52;;;;;;;10.15;40.04;101448.38;7711044;32;37790;-76
2022/03/17 19:17:01;;;;;;;34.40;21.05;;;;;;;9.95;40.57;101453.22;7711060;32;38042;-75
2022/03/17 19:21:39;;;;;;;38.50;21.27;;;;;;;9.99;40.42;101449.00;7709152;32;39533;-75
2022/03/17 19:26:00;;;;;;;37.70;19.55;;;;;;;9.98;40.23;101457.41;7710653;32;40075;-76
2022/03/17 19:30:25;;;;;;;31.30;19.33;;;;;;;9.79;40.77;101460.13;7698620;32;36297;-76
2022/03/17 19:34:41;;;;;;;31.62;20.23;;;;;;;9.71;41.01;101469.44;7710543;32;37160;-76
2022/03/17 19:38:57;;;;;;;37.85;20.23;;;;;;;9.51;41.29;101474.22;7710697;32;39299;-76
2022/03/17 19:43:14;;;;;;;39.15;20.58;;;;;;;9.51;41.14;101476.97;7710516;32;39866;-77
2022/03/17 19:47:32;;;;;;;28.33;18.40;;;;;;;9.50;40.98;101480.72;7710240;32;38494;-76
2022/03/17 19:51:48;;;;;;;31.23;20.20;;;;;;;9.56;40.74;101488.84;7696269;32;37024;-77
2022/03/17 19:56:09;;;;;;;34.25;20.45;;;;;;;9.50;40.98;101500.63;7710124;32;39345;-77
2022/03/17 20:00:26;;;;;;;35.00;21.70;;;;;;;9.39;41.38;101499.44;7707499;32;39977;-76
2022/03/17 20:04:42;;;;;;;39.15;21.65;;;;;;;9.27;42.04;101511.28;7709643;32;37920;-76
2022/03/17 20:08:58;;;;;;;36.60;22.20;;;;;;;9.29;41.95;101520.88;7709653;32;38264;-76
2022/03/17 20:17:51;;;;;;;39.58;23.25;;;;;;;9.11;44.19;101531.72;7711583;32;39930;-76
2022/03/17 20:22:07;;;;;;;39.17;22.90;;;;;;;9.16;44.00;101534.59;7712967;32;37957;-76